• Join FlightAware (Why Join?)
  • Login
  • US Flag 
10:35AM EDT


 

Airport Tracker/Info


-or-


 

Live Flight TrackerFlight Track Log ✈ IBE6674 ✈ 11-Apr-2013 ✈ SVMI / CCS - LEMD / MAD

Flight Track Log - Related Links

Times and Time Zones

All times are in EDT time to prevent confusion due to time zone crossing. See the IBE6674 flight status page for this flight to view local times or setup timezone preferences in your user account.

Time Position Orientation Groundspeed Altitude Reporting Facility
EDT Latitude Longitude Course Direction KTS MPH feet Rate Location/Type
06:42PM 15.6710 -62.1320 44° Northeast 517 595 37,000  Level FlightAware
06:43PM 15.6880 -62.1140 46° Northeast 516 594 37,000  Level FlightAware
06:43PM 15.7550 -62.0480 43° Northeast 514 592 37,000  Level FlightAware
06:44PM 15.8360 -61.9680 44° Northeast 513 590 37,000  Level FlightAware
06:45PM 15.9000 -61.9040 44° Northeast 514 592 37,000  Level FlightAware
06:46PM 15.9900 -61.8140 44° Northeast 514 592 37,000  Level FlightAware
06:46PM 16.0580 -61.7470 43° Northeast 513 590 37,000  Level FlightAware
06:47PM 16.1270 -61.6780 44° Northeast 512 589 37,000  Level FlightAware
06:48PM 16.1920 -61.6120 44° Northeast 512 589 37,000  Level FlightAware
06:48PM 16.2560 -61.5490 43° Northeast 512 589 37,000  Level FlightAware
06:49PM 16.3560 -61.4600 40° Northeast 510 587 37,000  Level FlightAware
06:50PM 16.4220 -61.4020 40° Northeast 510 587 37,000  Level FlightAware
06:50PM 16.4910 -61.3410 40° Northeast 512 589 37,000  Level FlightAware
06:51PM 16.5650 -61.2770 40° Northeast 512 589 37,000  Level FlightAware
06:52PM 16.6280 -61.2210 40° Northeast 512 589 37,000  Level FlightAware
06:53PM 16.7200 -61.1400 40° Northeast 515 593 37,000  Level FlightAware
06:54PM 16.8260 -61.0460 40° Northeast 515 593 37,000  Level FlightAware
06:54PM 16.9010 -60.9800 40° Northeast 514 592 37,000  Level FlightAware
06:55PM 16.9860 -60.9050 40° Northeast 515 593 37,000  Level FlightAware
06:56PM 17.0690 -60.8310 40° Northeast 517 595 37,000  Level FlightAware
06:56PM 17.1510 -60.7580 40° Northeast 519 597 37,000  Level FlightAware
06:57PM 17.2250 -60.6930 40° Northeast 518 596 37,000  Level FlightAware
06:58PM 17.2950 -60.6300 41° Northeast 517 595 37,000  Level FlightAware
06:58PM 17.3730 -60.5610 40° Northeast 518 596 37,000  Level FlightAware
06:59PM 17.4610 -60.4820 41° Northeast 519 597 37,000  Level FlightAware
07:00PM 17.5300 -60.4210 40° Northeast 520 598 37,000  Level FlightAware
07:01PM 17.6180 -60.3420 41° Northeast 521 600 37,000  Level FlightAware
07:01PM 17.6850 -60.2820 40° Northeast 521 600 37,000  Level FlightAware
07:02PM 17.7810 -60.1960 40° Northeast 522 601 37,000  Level FlightAware
07:03PM 17.8600 -60.1260 40° Northeast 522 601 37,000  Level FlightAware
07:03PM 17.9200 -60.0710 41° Northeast 521 600 37,000  Level FlightAware
07:04PM 18.0000 -60.0000 51° Northeast 530 610 37,000  Level New York Oceanic (ODAPS)
07:04PM 17.9730 -60.0230 41° Northeast 525 604 37,000  Level FlightAware
07:05PM 18.0510 -59.9440 44° Northeast 525 604 37,000  Level FlightAware
07:06PM 18.1120 -59.8850 43° Northeast 525 604 37,000  Level FlightAware
07:06PM 18.1690 -59.7780 61° Northeast 531 611 37,000  Level FlightAware
07:07PM 18.2220 -59.7090 51° Northeast 531 611 37,000  Level FlightAware
07:08PM 18.2740 -59.6410 51° Northeast 531 611 37,000  Level FlightAware
07:08PM 18.4000 -59.4667 51° Northeast 527 606 37,000  Level New York Oceanic (ODAPS)
07:08PM 18.3400 -59.5550 51° Northeast 531 611 37,000  Level FlightAware
07:09PM 18.3920 -59.4870 51° Northeast 531 611 37,000  Level FlightAware
07:10PM 18.5850 -59.2280 52° Northeast 37,000  Level FlightAware
07:12PM 18.7285 -59.0306 52° Northeast  Level FlightAware Approximate
07:13PM 18.8129 -58.9143 53° Northeast  Level FlightAware Approximate
07:14PM 18.9467 -58.7398 52° Northeast 527 606 37,000  Level FlightAware Transoceanic
07:15PM 19.0375 -58.6182 52° Northeast 527 606 37,000  Level FlightAware Transoceanic
07:16PM 19.1283 -58.4965 52° Northeast 527 606 37,000  Level FlightAware Transoceanic
07:17PM 19.2189 -58.3746 52° Northeast 527 606 37,000  Level FlightAware Transoceanic
07:18PM 19.3095 -58.2526 52° Northeast 527 606 37,000  Level FlightAware Transoceanic
07:19PM 19.4000 -58.1305 52° Northeast 527 606 37,000  Level FlightAware Transoceanic
07:19PM 19.4167 -58.1167 52° Northeast 526 605 37,000  Level New York Oceanic (ODAPS)
07:20PM 19.4905 -58.0082 52° Northeast 527 606 37,000  Level FlightAware Transoceanic
07:21PM 19.5808 -57.8858 52° Northeast 527 606 37,000  Level FlightAware Transoceanic
07:22PM 19.6711 -57.7633 52° Northeast 527 606 37,000  Level FlightAware Transoceanic
07:23PM 19.7613 -57.6406 52° Northeast 527 606 37,000  Level FlightAware Transoceanic
07:24PM 19.8514 -57.5178 52° Northeast 527 606 37,000  Level FlightAware Transoceanic
07:25PM 19.9564 -57.3822 52° Northeast 526 605 37,000  Level FlightAware Transoceanic
07:26PM 20.0461 -57.2593 52° Northeast 526 605 37,000  Level FlightAware Transoceanic
07:27PM 20.1357 -57.1362 52° Northeast 526 605 37,000  Level FlightAware Transoceanic
07:28PM 20.2251 -57.0130 52° Northeast 526 605 37,000  Level FlightAware Transoceanic
07:28PM 20.2500 -56.9833 52° Northeast 524 603 37,000  Level New York Oceanic (ODAPS)
07:29PM 20.3146 -56.8897 52° Northeast 526 605 37,000  Level FlightAware Transoceanic
07:30PM 20.4039 -56.7663 52° Northeast 526 605 37,000  Level FlightAware Transoceanic
07:31PM 20.4931 -56.6426 52° Northeast 526 605 37,000  Level FlightAware Transoceanic
07:32PM 20.5823 -56.5189 52° Northeast 526 605 37,000  Level FlightAware Transoceanic
07:33PM 20.6713 -56.3950 52° Northeast 526 605 37,000  Level FlightAware Transoceanic
07:34PM 20.7603 -56.2709 53° Northeast 526 605 37,000  Level FlightAware Transoceanic
07:35PM 20.7921 -56.2305 53° Northeast 524 603 37,000  Level FlightAware Transoceanic
07:36PM 20.8822 -56.1045 53° Northeast 524 603 37,000  Level FlightAware Transoceanic
07:37PM 20.9721 -55.9784 53° Northeast 524 603 37,000  Level FlightAware Transoceanic
07:38PM 21.0620 -55.8521 53° Northeast 524 603 37,000  Level FlightAware Transoceanic
07:39PM 21.1517 -55.7257 53° Northeast 524 603 37,000  Level FlightAware Transoceanic
07:40PM 21.2414 -55.5991 53° Northeast 524 603 37,000  Level FlightAware Transoceanic
07:41PM 21.3310 -55.4723 53° Northeast 524 603 37,000  Level FlightAware Transoceanic
07:42PM 21.4205 -55.3454 53° Northeast 524 603 37,000  Level FlightAware Transoceanic
07:43PM 21.5098 -55.2184 53° Northeast 524 603 37,000  Level FlightAware Transoceanic
07:44PM 21.5991 -55.0911 53° Northeast 524 603 37,000  Level FlightAware Transoceanic
07:45PM 21.6883 -54.9638 53° Northeast 524 603 37,000  Level FlightAware Transoceanic
07:46PM 21.7774 -54.8363 53° Northeast 524 603 37,000  Level FlightAware Transoceanic
07:47PM 21.8664 -54.7086 53° Northeast 524 603 37,000  Level FlightAware Transoceanic
07:48PM 21.9553 -54.5807 53° Northeast 524 603 37,000  Level FlightAware Transoceanic
07:49PM 22.0441 -54.4527 53° Northeast 524 603 37,000  Level FlightAware Transoceanic
07:49PM 22.0333 -54.4667 53° Northeast 515 593 37,000  Level New York Oceanic (ODAPS)
07:50PM 22.1328 -54.3245 53° Northeast 524 603 37,000  Level FlightAware Transoceanic
07:51PM 22.2214 -54.1962 53° Northeast 524 603 37,000  Level FlightAware Transoceanic
07:52PM 22.3099 -54.0677 53° Northeast 524 603 37,000  Level FlightAware Transoceanic
07:53PM 22.3983 -53.9390 53° Northeast 524 603 37,000  Level FlightAware Transoceanic
07:54PM 22.4865 -53.8102 53° Northeast 524 603 37,000  Level FlightAware Transoceanic
07:55PM 22.5508 -53.7150 53° Northeast 515 593 37,000  Level FlightAware Transoceanic
07:56PM 22.6367 -53.5892 54° Northeast 515 593 37,000  Level FlightAware Transoceanic
07:57PM 22.7225 -53.4632 54° Northeast 515 593 37,000  Level FlightAware Transoceanic
07:58PM 22.8082 -53.3371 54° Northeast 515 593 37,000  Level FlightAware Transoceanic
07:59PM 22.8938 -53.2108 54° Northeast 515 593 37,000  Level FlightAware Transoceanic
08:00PM 22.9793 -53.0844 54° Northeast 515 593 37,000  Level FlightAware Transoceanic
08:01PM 23.0647 -52.9578 54° Northeast 515 593 37,000  Level FlightAware Transoceanic
08:02PM 23.1500 -52.8310 54° Northeast 515 593 37,000  Level FlightAware Transoceanic
08:03PM 23.2352 -52.7041 54° Northeast 515 593 37,000  Level FlightAware Transoceanic
08:04PM 23.3203 -52.5770 54° Northeast 515 593 37,000  Level FlightAware Transoceanic
08:05PM 23.4053 -52.4497 54° Northeast 515 593 37,000  Level FlightAware Transoceanic
08:06PM 23.4902 -52.3223 54° Northeast 515 593 37,000  Level FlightAware Transoceanic
08:07PM 23.5750 -52.1947 54° Northeast 515 593 37,000  Level FlightAware Transoceanic
08:08PM 23.6597 -52.0670 54° Northeast 515 593 37,000  Level FlightAware Transoceanic
08:09PM 23.7442 -51.9390 54° Northeast 515 593 37,000  Level FlightAware Transoceanic
08:09PM 23.7500 -51.9333 54° Northeast 513 590 37,000  Level New York Oceanic (ODAPS)
08:10PM 23.8287 -51.8110 54° Northeast 515 593 37,000  Level FlightAware Transoceanic
08:11PM 23.9131 -51.6827 54° Northeast 515 593 37,000  Level FlightAware Transoceanic
08:12PM 23.9974 -51.5543 54° Northeast 515 593 37,000  Level FlightAware Transoceanic
08:13PM 24.0815 -51.4257 54° Northeast 515 593 37,000  Level FlightAware Transoceanic
08:14PM 24.1656 -51.2970 54° Northeast 515 593 37,000  Level FlightAware Transoceanic
08:15PM 24.2529 -51.1646 55° Northeast 513 590 37,000  Level FlightAware Transoceanic
08:16PM 24.3364 -51.0359 55° Northeast 513 590 37,000  Level FlightAware Transoceanic
08:17PM 24.4197 -50.9070 55° Northeast 513 590 37,000  Level FlightAware Transoceanic
08:18PM 24.5030 -50.7779 55° Northeast 513 590 37,000  Level FlightAware Transoceanic
08:19PM 24.5861 -50.6487 55° Northeast 513 590 37,000  Level FlightAware Transoceanic
08:20PM 24.6691 -50.5193 55° Northeast 513 590 37,000  Level FlightAware Transoceanic
08:21PM 24.7520 -50.3897 55° Northeast 513 590 37,000  Level FlightAware Transoceanic
08:22PM 24.8348 -50.2600 55° Northeast 513 590 37,000  Level FlightAware Transoceanic
08:23PM 24.9174 -50.1301 55° Northeast 513 590 37,000  Level FlightAware Transoceanic
08:24PM 25.0000 -50.0000 58° Northeast 513 590 37,000  Level FlightAware Transoceanic
08:24PM 25.0000 -50.0000 58° Northeast 501 577 37,000  Level New York Oceanic (ODAPS)
08:25PM 25.0731 -49.8690 58° Northeast 513 590 37,000  Level FlightAware Transoceanic
08:26PM 25.1461 -49.7378 58° Northeast 513 590 37,000  Level FlightAware Transoceanic
08:27PM 25.2190 -49.6065 59° Northeast 513 590 37,000  Level FlightAware Transoceanic
08:28PM 25.2917 -49.4751 59° Northeast 513 590 37,000  Level FlightAware Transoceanic
08:29PM 25.3643 -49.3434 59° Northeast 513 590 37,000  Level FlightAware Transoceanic
08:29PM 25.3833 -49.3167 59° Northeast 499 574 37,000  Level New York Oceanic (ODAPS)
08:30PM 25.4368 -49.2117 59° Northeast 501 577 37,000  Level FlightAware Transoceanic
08:31PM 25.5092 -49.0797 59° Northeast 501 577 37,000  Level FlightAware Transoceanic
08:32PM 25.5815 -48.9476 59° Northeast 501 577 37,000  Level FlightAware Transoceanic
08:33PM 25.6537 -48.8153 59° Northeast 501 577 37,000  Level FlightAware Transoceanic
08:34PM 25.7257 -48.6829 59° Northeast 501 577 37,000  Level FlightAware Transoceanic
08:35PM 25.8148 -48.5257 59° Northeast 499 574 37,000  Level FlightAware Transoceanic
08:36PM 25.8864 -48.3933 59° Northeast 499 574 37,000  Level FlightAware Transoceanic
08:37PM 25.9577 -48.2608 59° Northeast 499 574 37,000  Level FlightAware Transoceanic
08:38PM 26.0290 -48.1281 59° Northeast 499 574 37,000  Level FlightAware Transoceanic
08:39PM 26.1001 -47.9952 59° Northeast 499 574 37,000  Level FlightAware Transoceanic
08:40PM 26.1712 -47.8622 59° Northeast 499 574 37,000  Level FlightAware Transoceanic
08:41PM 26.2421 -47.7290 59° Northeast 499 574 37,000  Level FlightAware Transoceanic
08:42PM 26.3128 -47.5957 59° Northeast 499 574 37,000  Level FlightAware Transoceanic
08:43PM 26.3835 -47.4622 59° Northeast 499 574 37,000  Level FlightAware Transoceanic
08:44PM 26.4540 -47.3285 60° Northeast 499 574 37,000  Level FlightAware Transoceanic
08:45PM 26.5244 -47.1946 60° Northeast 499 574 37,000  Level FlightAware Transoceanic
08:46PM 26.5947 -47.0606 60° Northeast 499 574 37,000  Level FlightAware Transoceanic
08:47PM 26.6648 -46.9265 60° Northeast 499 574 37,000  Level FlightAware Transoceanic
08:48PM 26.7348 -46.7921 60° Northeast 499 574 37,000  Level FlightAware Transoceanic
08:49PM 26.8048 -46.6576 60° Northeast 499 574 37,000  Level FlightAware Transoceanic
08:49PM 26.8333 -46.6000 60° Northeast 494 568 37,000  Level New York Oceanic (ODAPS)
08:50PM 26.8745 -46.5230 60° Northeast 499 574 37,000  Level FlightAware Transoceanic
08:51PM 26.9442 -46.3882 60° Northeast 499 574 37,000  Level FlightAware Transoceanic
08:52PM 27.0137 -46.2532 60° Northeast 499 574 37,000  Level FlightAware Transoceanic
08:53PM 27.0831 -46.1180 60° Northeast 499 574 37,000  Level FlightAware Transoceanic
08:54PM 27.1523 -45.9827 60° Northeast 499 574 37,000  Level FlightAware Transoceanic
08:55PM 27.2215 -45.8472 60° Northeast 499 574 37,000  Level FlightAware Transoceanic
08:56PM 27.2462 -45.7964 60° Northeast 494 568 37,000  Level FlightAware Transoceanic
08:57PM 27.3145 -45.6618 60° Northeast 494 568 37,000  Level FlightAware Transoceanic
08:58PM 27.3828 -45.5272 60° Northeast 494 568 37,000  Level FlightAware Transoceanic
08:59PM 27.4509 -45.3923 60° Northeast 494 568 37,000  Level FlightAware Transoceanic
09:00PM 27.5188 -45.2573 60° Northeast 494 568 37,000  Level FlightAware Transoceanic
09:01PM 27.5867 -45.1221 61° Northeast 494 568 37,000  Level FlightAware Transoceanic
09:02PM 27.6544 -44.9868 61° Northeast 494 568 37,000  Level FlightAware Transoceanic
09:03PM 27.7220 -44.8512 61° Northeast 494 568 37,000  Level FlightAware Transoceanic
09:04PM 27.7894 -44.7156 61° Northeast 494 568 37,000  Level FlightAware Transoceanic
09:05PM 27.8567 -44.5797 61° Northeast 494 568 37,000  Level FlightAware Transoceanic
09:06PM 27.9239 -44.4437 61° Northeast 494 568 37,000  Level FlightAware Transoceanic
09:07PM 27.9909 -44.3075 61° Northeast 494 568 37,000  Level FlightAware Transoceanic
09:08PM 28.0578 -44.1711 61° Northeast 494 568 37,000  Level FlightAware Transoceanic
09:09PM 28.1246 -44.0346 61° Northeast 494 568 37,000  Level FlightAware Transoceanic
09:10PM 28.1913 -43.8979 61° Northeast 494 568 37,000  Level FlightAware Transoceanic
09:10PM 28.2000 -43.8667 61° Northeast 493 567 37,000  Level New York Oceanic (ODAPS)
09:11PM 28.2578 -43.7610 61° Northeast 494 568 37,000  Level FlightAware Transoceanic
09:12PM 28.3242 -43.6240 61° Northeast 494 568 37,000  Level FlightAware Transoceanic
09:13PM 28.3904 -43.4868 61° Northeast 494 568 37,000  Level FlightAware Transoceanic
09:14PM 28.4565 -43.3494 61° Northeast 494 568 37,000  Level FlightAware Transoceanic
09:15PM 28.5224 -43.2119 61° Northeast 494 568 37,000  Level FlightAware Transoceanic
09:16PM 28.5950 -43.0494 61° Northeast 493 567 37,000  Level FlightAware Transoceanic
09:17PM 28.6603 -42.9126 61° Northeast 493 567 37,000  Level FlightAware Transoceanic
09:18PM 28.7255 -42.7757 62° Northeast 493 567 37,000  Level FlightAware Transoceanic
09:19PM 28.7906 -42.6385 62° Northeast 493 567 37,000  Level FlightAware Transoceanic
09:20PM 28.8555 -42.5012 62° Northeast 493 567 37,000  Level FlightAware Transoceanic
09:21PM 28.9203 -42.3637 62° Northeast 493 567 37,000  Level FlightAware Transoceanic
09:22PM 28.9850 -42.2261 62° Northeast 493 567 37,000  Level FlightAware Transoceanic
09:23PM 29.0495 -42.0882 62° Northeast 493 567 37,000  Level FlightAware Transoceanic
09:24PM 29.1139 -41.9502 62° Northeast 493 567 37,000  Level FlightAware Transoceanic
09:25PM 29.1781 -41.8121 62° Northeast 493 567 37,000  Level FlightAware Transoceanic
09:26PM 29.2422 -41.6737 62° Northeast 493 567 37,000  Level FlightAware Transoceanic
09:27PM 29.3061 -41.5352 62° Northeast 493 567 37,000  Level FlightAware Transoceanic
09:28PM 29.3699 -41.3965 62° Northeast 493 567 37,000  Level FlightAware Transoceanic
09:29PM 29.4336 -41.2576 62° Northeast 493 567 37,000  Level FlightAware Transoceanic
09:30PM 29.4971 -41.1186 62° Northeast 493 567 37,000  Level FlightAware Transoceanic
09:30PM 29.5167 -41.0667 62° Northeast 494 568 37,000  Level New York Oceanic (ODAPS)
09:31PM 29.5605 -40.9794 62° Northeast 493 567 37,000  Level FlightAware Transoceanic
09:32PM 29.6237 -40.8400 62° Northeast 493 567 37,000  Level FlightAware Transoceanic
09:33PM 29.6868 -40.7005 63° Northeast 493 567 37,000  Level FlightAware Transoceanic
09:34PM 29.7497 -40.5607 63° Northeast 493 567 37,000  Level FlightAware Transoceanic
09:35PM 29.8125 -40.4208 63° Northeast 493 567 37,000  Level FlightAware Transoceanic
09:36PM 29.8800 -40.2676 63° Northeast 494 568 37,000  Level FlightAware Transoceanic
09:37PM 29.9401 -40.1339 63° Northeast 494 568 37,000  Level FlightAware Transoceanic
09:38PM 30.0000 -40.0000 62° Northeast 494 568 37,000  Level FlightAware Transoceanic
09:39PM 30.0634 -39.8613 62° Northeast 494 568 37,000  Level FlightAware Transoceanic
09:40PM 30.1266 -39.7223 62° Northeast 494 568 37,000  Level FlightAware Transoceanic
09:41PM 30.1896 -39.5832 62° Northeast 494 568 37,000  Level FlightAware Transoceanic
09:42PM 30.2526 -39.4440 62° Northeast 494 568 37,000  Level FlightAware Transoceanic
09:43PM 30.3153 -39.3045 63° Northeast 494 568 37,000  Level FlightAware Transoceanic
09:44PM 30.3780 -39.1649 63° Northeast 494 568 37,000  Level FlightAware Transoceanic
09:45PM 30.4405 -39.0251 63° Northeast 494 568 37,000  Level FlightAware Transoceanic
09:46PM 30.5028 -38.8851 63° Northeast 494 568 37,000  Level FlightAware Transoceanic
09:47PM 30.5650 -38.7449 63° Northeast 494 568 37,000  Level FlightAware Transoceanic
09:48PM 30.6270 -38.6046 63° Northeast 494 568 37,000  Level FlightAware Transoceanic
09:49PM 30.6889 -38.4641 63° Northeast 494 568 37,000  Level FlightAware Transoceanic
09:50PM 30.7506 -38.3233 63° Northeast 494 568 37,000  Level FlightAware Transoceanic
09:51PM 30.8122 -38.1824 63° Northeast 494 568 37,000  Level FlightAware Transoceanic
09:52PM 30.8736 -38.0414 63° Northeast 494 568 37,000  Level FlightAware Transoceanic
09:53PM 30.9349 -37.9001 63° Northeast 494 568 37,000  Level FlightAware Transoceanic
09:54PM 30.9960 -37.7587 63° Northeast 494 568 37,000  Level FlightAware Transoceanic
09:55PM 31.0569 -37.6171 63° Northeast 494 568 37,000  Level FlightAware Transoceanic
09:56PM 31.1178 -37.4753 63° Northeast 494 568 37,000  Level FlightAware Transoceanic
09:57PM 31.1784 -37.3333 64° Northeast 494 568 37,000  Level FlightAware Transoceanic
09:58PM 31.2389 -37.1912 64° Northeast 494 568 37,000  Level FlightAware Transoceanic
09:59PM 31.2992 -37.0488 64° Northeast 494 568 37,000  Level FlightAware Transoceanic
10:00PM 31.3594 -36.9063 64° Northeast 494 568 37,000  Level FlightAware Transoceanic
10:01PM 31.4195 -36.7636 64° Northeast 494 568 37,000  Level FlightAware Transoceanic
10:02PM 31.4793 -36.6207 64° Northeast 494 568 37,000  Level FlightAware Transoceanic
10:03PM 31.5390 -36.4777 64° Northeast 494 568 37,000  Level FlightAware Transoceanic
10:04PM 31.5986 -36.3344 64° Northeast 494 568 37,000  Level FlightAware Transoceanic
10:05PM 31.6580 -36.1910 64° Northeast 494 568 37,000  Level FlightAware Transoceanic
10:06PM 31.7172 -36.0474 64° Northeast 494 568 37,000  Level FlightAware Transoceanic
10:07PM 31.7763 -35.9036 64° Northeast 494 568 37,000  Level FlightAware Transoceanic
10:08PM 31.8351 -35.7596 64° Northeast 494 568 37,000  Level FlightAware Transoceanic
10:09PM 31.8939 -35.6154 64° Northeast 494 568 37,000  Level FlightAware Transoceanic
10:10PM 31.9525 -35.4711 64° Northeast 494 568 37,000  Level FlightAware Transoceanic
10:11PM 32.0109 -35.3265 65° Northeast 494 568 37,000  Level FlightAware Transoceanic
10:12PM 32.0691 -35.1818 65° Northeast 494 568 37,000  Level FlightAware Transoceanic
10:13PM 32.1272 -35.0369 65° Northeast 494 568 37,000  Level FlightAware Transoceanic
10:14PM 32.1852 -34.8918 65° Northeast 494 568 37,000  Level FlightAware Transoceanic
10:15PM 32.2429 -34.7466 65° Northeast 494 568 37,000  Level FlightAware Transoceanic
10:16PM 32.3005 -34.6011 65° Northeast 494 568 37,000  Level FlightAware Transoceanic
10:17PM 32.3579 -34.4554 65° Northeast 494 568 37,000  Level FlightAware Transoceanic
10:18PM 32.4152 -34.3096 65° Northeast 494 568 37,000  Level FlightAware Transoceanic
10:19PM 32.4723 -34.1636 65° Northeast 494 568 37,000  Level FlightAware Transoceanic
10:20PM 32.5292 -34.0174 65° Northeast 494 568 37,000  Level FlightAware Transoceanic
10:21PM 32.5859 -33.8710 65° Northeast 494 568 37,000  Level FlightAware Transoceanic
10:22PM 32.6425 -33.7245 65° Northeast 494 568 37,000  Level FlightAware Transoceanic
10:23PM 32.6989 -33.5777 65° Northeast 494 568 37,000  Level FlightAware Transoceanic
10:24PM 32.7551 -33.4308 66° East 494 568 37,000  Level FlightAware Transoceanic
10:25PM 32.8112 -33.2837 66° East 494 568 37,000  Level FlightAware Transoceanic
10:26PM 32.8671 -33.1363 66° East 494 568 37,000  Level FlightAware Transoceanic
10:27PM 32.9228 -32.9889 66° East 494 568 37,000  Level FlightAware Transoceanic
10:28PM 32.9784 -32.8412 66° East 494 568 37,000  Level FlightAware Transoceanic
10:29PM 33.0337 -32.6933 66° East 494 568 37,000  Level FlightAware Transoceanic
10:30PM 33.0889 -32.5453 66° East 494 568 37,000  Level FlightAware Transoceanic
10:31PM 33.1440 -32.3970 66° East 494 568 37,000  Level FlightAware Transoceanic
10:32PM 33.1988 -32.2486 66° East 494 568 37,000  Level FlightAware Transoceanic
10:33PM 33.2535 -32.1000 66° East 494 568 37,000  Level FlightAware Transoceanic
10:34PM 33.3080 -31.9512 66° East 494 568 37,000  Level FlightAware Transoceanic
10:35PM 33.3623 -31.8022 66° East 494 568 37,000  Level FlightAware Transoceanic
10:36PM 33.4164 -31.6531 67° East 494 568 37,000  Level FlightAware Transoceanic
10:37PM 33.4704 -31.5037 67° East 494 568 37,000  Level FlightAware Transoceanic
10:38PM 33.5242 -31.3542 67° East 494 568 37,000  Level FlightAware Transoceanic
10:39PM 33.5778 -31.2045 67° East 494 568 37,000  Level FlightAware Transoceanic
10:40PM 33.6312 -31.0546 67° East 494 568 37,000  Level FlightAware Transoceanic
10:41PM 33.6844 -30.9045 67° East 494 568 37,000  Level FlightAware Transoceanic
10:42PM 33.7375 -30.7542 67° East 494 568 37,000  Level FlightAware Transoceanic
10:43PM 33.7903 -30.6037 67° East 494 568 37,000  Level FlightAware Transoceanic
10:44PM 33.8430 -30.4531 67° East 494 568 37,000  Level FlightAware Transoceanic
10:45PM 33.8955 -30.3022 67° East 494 568 37,000  Level FlightAware Transoceanic
10:46PM 33.9479 -30.1512 67° East 494 568 37,000  Level FlightAware Transoceanic
10:47PM 34.0011 -29.9968 67° East  Level FlightAware Approximate
10:48PM 34.0023 -29.9936 67° East  Level FlightAware Approximate
10:49PM 34.0561 -29.8394 67° East  Level FlightAware Approximate
10:50PM 34.1098 -29.6849 67° East  Level FlightAware Approximate
10:50PM 34.0980 -29.6700 67° East 494 568 37,000  Level FlightAware
10:51PM 34.1632 -29.5303 67° East  Level FlightAware Approximate
10:51PM 34.1330 -29.5680 67° East 494 568 37,000  Level FlightAware
10:51PM 34.1690 -29.4670 67° East 493 567 37,000  Level FlightAware
10:52PM 34.2060 -29.3610 67° East 493 567 37,000  Level FlightAware
10:53PM 34.2440 -29.2510 67° East 493 567 37,000  Level FlightAware
10:53PM 34.2750 -29.1600 68° East 493 567 37,000  Level FlightAware
10:54PM 34.3270 -29.0090 67° East 493 567 37,000  Level FlightAware
10:55PM 34.3670 -28.8910 68° East 495 570 37,000  Level FlightAware
10:56PM 34.3950 -28.8090 67° East 495 570 37,000  Level FlightAware
10:57PM 34.4370 -28.6870 67° East 495 570 37,000  Level FlightAware
10:57PM 34.4790 -28.5630 68° East 496 571 37,000  Level FlightAware
10:58PM 34.5290 -28.4140 68° East 496 571 37,000  Level FlightAware
10:59PM 34.5470 -28.3600 68° East 496 571 37,000  Level FlightAware
11:00PM 34.6090 -28.1740 68° East 499 574 37,000  Level FlightAware
11:01PM 34.6690 -27.9950 68° East 499 574 37,000  Level FlightAware
11:02PM 34.6930 -27.9220 68° East 499 574 37,000  Level FlightAware
11:02PM 34.7450 -27.7640 68° East 499 574 37,000  Level FlightAware
11:03PM 34.7760 -27.6710 68° East 499 574 37,000  Level FlightAware
11:04PM 34.8120 -27.5590 69° East 499 574 37,000  Level FlightAware
11:05PM 34.8480 -27.4480 68° East 496 571 37,000  Level FlightAware
11:05PM 34.8850 -27.3370 68° East 495 570 37,000  Level FlightAware
11:06PM 34.8880 -27.3270 70° East 496 571 37,000  Level FlightAware
11:07PM 34.9590 -27.1070 68° East 497 572 37,000  Level FlightAware
11:07PM 34.9920 -27.0040 69° East 494 568 37,000  Level FlightAware
11:08PM 35.0230 -26.9080 68° East 494 568 37,000  Level FlightAware
11:09PM 35.0580 -26.8020 68° East 494 568 37,000  Level FlightAware
11:09PM 35.0870 -26.7140 68° East 494 568 37,000  Level FlightAware
11:12PM 35.1893 -26.3927 69° East  Level FlightAware Approximate
11:12PM 35.1950 -26.3660 69° East 492 566 37,000  Level FlightAware
11:12PM 35.2270 -26.2650 69° East 492 566 37,000  Level FlightAware
11:13PM 35.2690 -26.1300 69° East 493 567 37,000  Level FlightAware
11:14PM 35.3060 -26.0090 69° East 493 567 37,000  Level FlightAware
11:14PM 35.3300 -25.9310 69° East 491 565 37,000  Level FlightAware
11:15PM 35.3740 -25.7900 69° East 492 566 37,000  Level FlightAware
11:16PM 35.4090 -25.6760 69° East 493 567 37,000  Level FlightAware
11:17PM 35.4380 -25.5830 69° East 491 565 37,000  Level FlightAware
11:17PM 35.4770 -25.4520 70° East 489 563 37,000  Level FlightAware
11:18PM 35.5040 -25.3640 69° East 488 562 37,000  Level FlightAware
11:19PM 35.5350 -25.2630 69° East 489 563 37,000  Level FlightAware
11:20PM 35.5860 -25.0940 70° East 488 562 37,000  Level FlightAware
11:20PM 35.6180 -24.9850 70° East 487 560 37,000  Level FlightAware
11:21PM 35.6510 -24.8770 69° East 488 562 37,000  Level FlightAware
11:22PM 35.6800 -24.7780 70° East 488 562 37,000  Level FlightAware
11:22PM 35.7110 -24.6730 70° East 488 562 37,000  Level FlightAware
11:24PM 35.7720 -24.4680 70° East 492 566 37,000  Level FlightAware
11:25PM 35.8320 -24.2620 70° East 493 567 37,000  Level FlightAware
11:26PM 35.8710 -24.1280 70° East 496 571 37,000  Level FlightAware
11:26PM 35.9020 -24.0220 70° East 495 570 37,000  Level FlightAware
11:27PM 35.9310 -23.9220 70° East 494 568 37,000  Level FlightAware
11:28PM 35.9690 -23.7900 70° East 494 568 37,000  Level FlightAware
11:29PM 36.0010 -23.6800 70° East 494 568 37,000  Level FlightAware
11:29PM 35.9830 -23.7410 250° West 493 567 37,000  Level FlightAware
11:30PM 36.0660 -23.4470 71° East 491 565 37,000  Level FlightAware
11:31PM 36.0920 -23.3580 70° East 492 566 37,000  Level FlightAware
11:31PM 36.1240 -23.2500 70° East 492 566 37,000  Level FlightAware
11:32PM 36.1500 -23.1600 70° East 492 566 37,000  Level FlightAware
11:33PM 36.1760 -23.0700 70° East 492 566 37,000  Level FlightAware
11:33PM 36.2030 -22.9800 70° East 492 566 37,000  Level FlightAware
11:34PM 36.2430 -22.8160 73° East 499 574 37,000  Level FlightAware
11:35PM 36.2690 -22.7240 71° East 499 574 37,000  Level FlightAware
11:36PM 36.2950 -22.6320 71° East 499 574 37,000  Level FlightAware
11:36PM 36.3200 -22.5400 71° East 499 574 37,000  Level FlightAware
11:37PM 36.3520 -22.4240 71° East 499 574 37,000  Level FlightAware
11:38PM 36.3780 -22.3320 71° East 499 574 37,000  Level FlightAware
11:38PM 36.4030 -22.2400 71° East 499 574 37,000  Level FlightAware
11:39PM 36.4290 -22.1480 71° East 499 574 37,000  Level FlightAware
11:40PM 36.4540 -22.0560 71° East 499 574 37,000  Level FlightAware
11:42PM 36.5433 -21.7691 69° East  Level Estimated
11:43PM 36.5931 -21.6079 69° East  Level Estimated
11:44PM 36.6426 -21.4465 69° East  Level Estimated
11:45PM 36.6919 -21.2849 69° East  Level Estimated
11:46PM 36.7411 -21.1231 69° East  Level Estimated
11:47PM 36.7899 -20.9611 69° East  Level Estimated
11:48PM 36.8386 -20.7988 69° East  Level Estimated
11:49PM 36.8871 -20.6364 70° East  Level Estimated
11:50PM 36.9353 -20.4738 70° East  Level Estimated
11:51PM 36.9833 -20.3109 70° East  Level Estimated
11:51PM 36.9940 -19.9720 70° East 517 595 37,000  Level FlightAware
11:52PM 37.0680 -19.7980 62° Northeast 518 596 37,000  Level FlightAware
11:53PM 37.1120 -19.6970 61° Northeast 518 596 37,000  Level FlightAware
11:54PM 37.1520 -19.6080 61° Northeast 518 596 37,000  Level FlightAware
11:54PM 37.1910 -19.5180 61° Northeast 518 596 37,000  Level FlightAware
11:55PM 37.2300 -19.4290 61° Northeast 518 596 37,000  Level FlightAware
11:56PM 37.2700 -19.3390 61° Northeast 518 596 37,000  Level FlightAware
11:58PM 37.3971 -19.0388 62° Northeast  Level FlightAware Approximate
11:59PM 37.4620 -18.8844 62° Northeast  Level FlightAware Approximate
12:00AM 37.5267 -18.7298 62° Northeast  Level FlightAware Approximate
12:01AM 37.5912 -18.5749 62° Northeast  Level FlightAware Approximate
12:02AM 37.6554 -18.4197 62° Northeast  Level FlightAware Approximate
12:03AM 37.7195 -18.2643 62° Northeast  Level FlightAware Approximate
12:04AM 37.7834 -18.1086 63° Northeast  Level FlightAware Approximate
12:05AM 37.8471 -17.9526 63° Northeast  Level FlightAware Approximate
12:06AM 37.9105 -17.7964 63° Northeast  Level FlightAware Approximate
12:07AM 37.9738 -17.6399 63° Northeast  Level FlightAware Approximate
12:08AM 38.0367 -17.4830 63° Northeast  Level FlightAware Approximate
12:09AM 38.0990 -17.3256 63° Northeast  Level FlightAware Approximate
12:10AM 38.1611 -17.1679 63° Northeast  Level FlightAware Approximate
12:11AM 38.2230 -17.0100 63° Northeast  Level FlightAware Approximate
12:12AM 38.2846 -16.8518 64° Northeast  Level FlightAware Approximate
12:13AM 38.3461 -16.6934 64° Northeast  Level FlightAware Approximate
12:14AM 38.4086 -16.5354 63° Northeast  Level FlightAware Approximate
12:15AM 38.4709 -16.3772 63° Northeast  Level FlightAware Approximate
12:16AM 38.5330 -16.2188 63° Northeast  Level FlightAware Approximate
12:17AM 38.5949 -16.0600 63° Northeast  Level FlightAware Approximate
12:18AM 38.6566 -15.9010 64° Northeast  Level FlightAware Approximate
12:19AM 38.7180 -15.7417 64° Northeast  Level FlightAware Approximate
12:20AM 38.7793 -15.5822 64° Northeast  Level FlightAware Approximate
12:21AM 38.8403 -15.4223 64° Northeast  Level FlightAware Approximate
12:22AM 38.9011 -15.2622 64° Northeast  Level FlightAware Approximate
12:23AM 38.9617 -15.1018 64° Northeast  Level FlightAware Approximate
12:24AM 39.0146 -14.9375 73° East  Level FlightAware Approximate
12:25AM 39.0545 -14.7665 73° East  Level FlightAware Approximate
12:26AM 39.0942 -14.5953 73° East  Level FlightAware Approximate
12:27AM 39.1335 -14.4239 73° East  Level FlightAware Approximate
12:28AM 39.1727 -14.2523 74° East  Level FlightAware Approximate
12:29AM 39.2116 -14.0805 74° East  Level FlightAware Approximate
12:30AM 39.2502 -13.9086 74° East  Level FlightAware Approximate
12:31AM 39.2886 -13.7364 74° East  Level FlightAware Approximate
12:32AM 39.3267 -13.5641 74° East  Level FlightAware Approximate
12:33AM 39.3645 -13.3915 74° East  Level FlightAware Approximate
12:34AM 39.4021 -13.2188 74° East  Level FlightAware Approximate
12:35AM 39.4395 -13.0459 74° East  Level FlightAware Approximate
12:36AM 39.4766 -12.8728 74° East  Level FlightAware Approximate
12:37AM 39.5134 -12.6996 75° East  Level FlightAware Approximate
12:38AM 39.5500 -12.5261 75° East  Level FlightAware Approximate
12:39AM 39.5863 -12.3525 75° East  Level FlightAware Approximate
12:40AM 39.6224 -12.1786 75° East  Level FlightAware Approximate
12:41AM 39.6582 -12.0047 75° East  Level FlightAware Approximate
12:42AM 39.6938 -11.8305 75° East  Level FlightAware Approximate
12:43AM 39.7290 -11.6561 75° East  Level FlightAware Approximate
12:44AM 39.7641 -11.4816 75° East  Level FlightAware Approximate
12:45AM 39.7988 -11.3069 75° East  Level FlightAware Approximate
12:46AM 39.8333 -11.1320 76° East  Level FlightAware Approximate
12:47AM 39.8676 -10.9569 76° East  Level FlightAware Approximate
12:47AM 39.9690 -10.2500 76° East 536 617 37,000  Level FlightAware
12:47AM 39.9950 -10.1020 77° East 539 620 37,000  Level FlightAware
12:48AM 40.0170 -9.9760 77° East 538 619 37,000  Level FlightAware
12:49AM 40.0390 -9.8480 77° East 537 618 37,000  Level FlightAware
12:50AM 40.0630 -9.7040 78° East 540 621 37,000  Level FlightAware
12:50AM 40.0840 -9.5770 78° East 544 626 37,000  Level FlightAware
12:51AM 40.1090 -9.4320 77° East 544 626 37,000  Level FlightAware
12:51AM 40.1250 -9.3340 78° East 543 625 37,000  Level FlightAware
12:52AM 40.1440 -9.2210 78° East 542 624 37,000  Level FlightAware
12:53AM 40.1670 -9.0760 78° East 541 623 37,000  Level FlightAware
12:53AM 40.1880 -8.9480 78° East 541 623 37,000  Level FlightAware
12:54AM 40.2120 -8.8030 78° East 541 623 37,000  Level FlightAware
12:55AM 40.2310 -8.6790 79° East 538 619 37,000  Level FlightAware
12:56AM 40.2550 -8.5320 78° East 541 623 37,000  Level FlightAware
12:57AM 40.2830 -8.3530 78° East 542 624 37,000  Level FlightAware
12:58AM 40.3350 -8.0150 78° East 539 620 37,000  Level FlightAware
12:59AM 40.3720 -7.8750 71° East 535 616 37,000  Level FlightAware
01:00AM 40.4060 -7.7500 70° East 536 617 37,000  Level FlightAware
01:00AM 40.4400 -7.6280 70° East 536 617 37,000  Level FlightAware
01:01AM 40.4790 -7.4870 70° East 535 616 37,000  Level FlightAware
01:02AM 40.5120 -7.3660 70° East 537 618 37,000  Level FlightAware
01:03AM 40.5510 -7.2240 70° East 539 620 37,000  Level FlightAware
01:03AM 40.5830 -7.1060 70° East 542 624 37,000  Level FlightAware
01:04AM 40.6180 -6.9780 70° East 544 626 37,000  Level FlightAware
01:05AM 40.6530 -6.8490 70° East 544 626 37,000 -1,380 Level FlightAware
01:07AM 40.6414 -6.5234 99° East  Level Estimated
01:08AM 40.5855 -6.3562 114° Southeast  Level FlightAware Approximate
01:09AM 40.5815 -6.1736 90° East  Level Estimated
01:10AM 40.5773 -5.9911 90° East  Level Estimated
01:11AM 40.5728 -5.8086 96° East  Level Estimated
01:12AM 40.5679 -5.6261 93° East  Level Estimated
01:13AM 40.5506 -5.4450 97° East  Level FlightAware Approximate
01:14AM 40.5464 -5.2625 92° East  Level Estimated
01:15AM 40.5386 -5.0803 93° East  Level FlightAware Approximate
01:16AM 40.5305 -4.8981 93° East  Level FlightAware Approximate
01:17AM 40.5221 -4.7160 93° East  Level FlightAware Approximate
01:18AM 40.5184 -4.5336 96° East  Level Estimated
01:19AM 40.5143 -4.3513 94° East  Level Estimated
01:20AM 40.4922 -4.1712 99° East  Level FlightAware Approximate
01:21AM 40.4929 -3.9888 90° East  Level Estimated
01:22AM 40.4934 -3.8065 90° East  Level Estimated
01:23AM 40.4936 -3.6241 90° East  Level Estimated
01:23AM 40.9300 -3.6660 90° East 283 326 10,700  Level FlightAware
01:24AM 40.9030 -3.6110 123° Southeast 265 305 10,000 -1,320 Descending FlightAware
01:25AM 40.8770 -3.5800 138° Southeast 245 282 9,200 -1,680 Descending FlightAware
01:25AM 40.8550 -3.5760 172° South 238 274 8,600 -1,560 Descending FlightAware
01:25AM 40.8240 -3.5770 181° South 243 280 7,900 -1,440 Descending FlightAware
01:26AM 40.7880 -3.5760 179° South 227 261 7,200 -1,440 Descending FlightAware
01:26AM 40.7610 -3.5760 180° South 221 254 6,600 -1,200 Descending FlightAware
01:27AM 40.7350 -3.5760 180° South 216 249 6,100 -1,140 Descending FlightAware
01:28AM 40.6910 -3.5760 180° South 207 238 5,200 -1,200 Descending FlightAware
01:28AM 40.6620 -3.5760 180° South 200 230 4,600 -1,200 Descending FlightAware
01:28AM 40.6460 -3.5760 180° South 196 226 4,300 -1,080 Descending FlightAware
01:29AM 40.6240 -3.5750 178° South 188 216 3,900 -1,020 Descending FlightAware
01:29AM 40.6000 -3.5750 180° South 173 199 3,400 -900 Descending FlightAware
01:30AM 40.5810 -3.5750 180° South 159 183 3,100 -900 Descending FlightAware
01:30AM 40.5600 -3.5750 180° South 149 171 2,600 -540 Descending FlightAware
01:31AM 40.5410 -3.5750 180° South 149 171 2,600 -720 Level FlightAware
01:31AM 40.5300 -3.5750 180° South 147 169 2,100 -2,040 Descending FlightAware